Salt Lake City, Utah
Traffic Map
Current Weather Conditions
Salt Lake City, Utah
Few Clouds
Few Clouds
21°
Feels Like: 21°
Wind Chill: 21° Ceiling: Unl
Heat Index: 21° Visibility: 10mi
Dew Point: -2° Wind: 0mph
Humidity: 22% Direction: ° ()
Pressure: 30.09in Gusts: 0mph
Raw Report DataKSLC 250554Z 00000KT 10SM FEW200 21/M02 A3009 RMK AO2 SLP138 T02061022 10278 20194 50002
Traffic Incident Summary
Active as of:
Severity:
Category:
InformationThere was an issue retrieving the traffic information for this location. Please try a different location or try again shortly.
Advertisements
Track Severe Weather on mobile